Time;durP1;ratioP1;P1;durP2;ratioP2;P2;SDS_P1;SDS_P2;PMS_P1;PMS_P2;Temp;Humidity;BMP_temperature;BMP_pressure;BME280_temperature;BME280_humidity;BME280_pressure;Samples;Min_cycle;Max_cycle;Signal;HPM_P1;HPM_P2
2022/08/09 00:00:27;;;;;;;2.25;1.10;;;15.10;99.90;;;;;;5052069;28;20037;-76
2022/08/09 00:02:52;;;;;;;3.45;1.50;;;15.20;99.90;;;;;;5045154;28;20041;-76
2022/08/09 00:05:20;;;;;;;2.25;1.35;;;15.10;99.90;;;;;;5043307;28;20044;-77
2022/08/09 00:07:45;;;;;;;2.50;1.60;;;15.00;99.90;;;;;;5032861;28;20040;-77
2022/08/09 00:10:11;;;;;;;2.30;1.30;;;14.90;99.90;;;;;;5048885;28;20398;-76
2022/08/09 00:12:37;;;;;;;2.97;2.20;;;14.80;99.90;;;;;;5042846;28;20431;-76
2022/08/09 00:15:03;;;;;;;4.57;2.30;;;14.70;99.90;;;;;;5039780;28;20037;-77
2022/08/09 00:17:29;;;;;;;4.75;2.42;;;14.60;99.90;;;;;;5044339;28;20514;-77
2022/08/09 00:19:54;;;;;;;3.38;2.20;;;14.50;99.90;;;;;;5043281;28;20033;-77
2022/08/09 00:22:20;;;;;;;3.40;1.98;;;14.50;99.90;;;;;;5042563;28;20048;-76
2022/08/09 00:24:46;;;;;;;2.72;1.77;;;14.50;99.90;;;;;;5046505;28;20037;-76
2022/08/09 00:27:11;;;;;;;2.83;1.50;;;14.60;99.90;;;;;;5049650;28;20037;-76
2022/08/09 00:29:37;;;;;;;1.15;0.98;;;14.70;99.90;;;;;;5044413;28;20131;-77
2022/08/09 00:32:03;;;;;;;2.42;1.77;;;14.70;99.90;;;;;;5045368;28;20025;-76
2022/08/09 00:34:28;;;;;;;2.38;1.73;;;14.70;99.90;;;;;;5042635;28;20446;-77
2022/08/09 00:36:54;;;;;;;1.70;1.40;;;14.60;99.90;;;;;;5040943;28;20033;-76
2022/08/09 00:39:21;;;;;;;2.22;1.50;;;14.60;99.90;;;;;;5036133;28;20044;-76
2022/08/09 00:41:48;;;;;;;2.33;1.63;;;14.50;99.90;;;;;;5047851;28;20045;-76
2022/08/09 00:44:13;;;;;;;2.88;1.60;;;14.50;99.90;;;;;;5044625;28;20410;-77
2022/08/09 00:46:40;;;;;;;1.77;1.40;;;14.40;99.90;;;;;;5037126;28;20128;-77
2022/08/09 00:49:06;;;;;;;2.55;1.98;;;14.30;99.90;;;;;;5039094;28;20549;-76
2022/08/09 00:51:31;;;;;;;2.40;1.63;;;14.30;99.90;;;;;;5049282;28;20090;-76
2022/08/09 00:53:57;;;;;;;2.42;1.67;;;14.30;99.90;;;;;;5041453;28;20520;-76
2022/08/09 00:56:22;;;;;;;3.42;1.80;;;14.30;99.90;;;;;;5044225;28;20041;-77
2022/08/09 00:58:50;;;;;;;1.90;1.63;;;14.40;99.90;;;;;;5045345;28;20044;-76
2022/08/09 01:01:20;;;;;;;1.70;1.50;;;14.30;99.90;;;;;;5050455;28;20033;-76
2022/08/09 01:04:11;;;;;;;2.00;1.17;;;14.40;99.90;;;;;;5043566;28;20047;-76
2022/08/09 01:06:43;;;;;;;0.90;0.80;;;14.30;99.90;;;;;;5046962;28;20059;-76
2022/08/09 01:09:25;;;;;;;1.05;0.80;;;14.30;99.90;;;;;;5039609;28;20047;-76
2022/08/09 01:12:03;;;;;;;0.47;0.45;;;14.30;99.90;;;;;;5035350;28;20041;-76
2022/08/09 01:14:34;;;;;;;0.70;0.60;;;14.30;99.90;;;;;;5036873;28;20088;-76
2022/08/09 01:17:10;;;;;;;0.98;0.70;;;14.20;99.90;;;;;;5037373;28;20372;-76
2022/08/09 01:19:41;;;;;;;1.20;0.90;;;14.30;99.90;;;;;;5042712;28;20041;-76
2022/08/09 01:22:12;;;;;;;1.45;1.10;;;14.10;99.90;;;;;;5046255;28;20040;-76
2022/08/09 01:24:52;;;;;;;1.40;1.10;;;14.10;99.90;;;;;;5039162;28;20045;-76
2022/08/09 01:27:20;;;;;;;1.30;1.00;;;14.10;99.90;;;;;;5039562;28;20093;-76
2022/08/09 01:29:55;;;;;;;1.00;0.77;;;14.10;99.90;;;;;;5041276;28;20040;-76
2022/08/09 01:32:22;;;;;;;1.27;1.00;;;14.00;99.90;;;;;;5040606;28;20108;-76
2022/08/09 01:34:52;;;;;;;1.08;0.90;;;13.90;99.90;;;;;;5043966;28;20064;-76
2022/08/09 01:37:19;;;;;;;2.15;1.20;;;13.90;99.90;;;;;;5039796;28;20048;-76
2022/08/09 01:39:48;;;;;;;2.35;1.15;;;13.90;99.90;;;;;;5027279;28;20034;-76
2022/08/09 01:42:14;;;;;;;1.13;1.00;;;13.80;99.90;;;;;;5030042;28;20065;-76
2022/08/09 01:44:41;;;;;;;1.75;1.10;;;13.80;99.90;;;;;;5045493;28;20037;-76
2022/08/09 01:47:08;;;;;;;1.83;1.23;;;13.80;99.90;;;;;;5038700;28;20042;-76
2022/08/09 01:49:36;;;;;;;1.63;1.10;;;13.80;99.90;;;;;;5041421;28;20087;-76
2022/08/09 01:52:05;;;;;;;1.45;1.10;;;13.80;99.90;;;;;;5046262;28;20052;-76
2022/08/09 01:54:35;;;;;;;1.65;1.10;;;13.80;99.90;;;;;;5042434;28;20037;-76
2022/08/09 01:57:09;;;;;;;1.67;0.60;;;13.80;99.90;;;;;;5034632;28;20033;-76
2022/08/09 01:59:38;;;;;;;1.00;0.75;;;13.80;99.90;;;;;;5046405;28;20119;-76
2022/08/09 02:02:06;;;;;;;1.38;0.80;;;13.80;99.90;;;;;;5047619;28;20726;-76
2022/08/09 02:04:33;;;;;;;1.55;1.00;;;13.70;99.90;;;;;;5047599;28;20048;-77
2022/08/09 02:07:07;;;;;;;1.08;0.85;;;13.70;99.90;;;;;;5046656;28;20037;-76
2022/08/09 02:09:36;;;;;;;1.70;1.20;;;13.60;99.90;;;;;;5041609;28;20037;-76
2022/08/09 02:12:05;;;;;;;1.98;1.10;;;13.50;99.90;;;;;;5045861;28;20033;-76
2022/08/09 02:14:34;;;;;;;1.55;1.17;;;13.40;99.90;;;;;;5042760;28;20139;-76
2022/08/09 02:16:59;;;;;;;1.73;1.38;;;13.40;99.90;;;;;;5043625;28;20040;-76
2022/08/09 02:19:25;;;;;;;1.42;1.10;;;13.50;99.90;;;;;;5049139;28;20048;-76
2022/08/09 02:21:55;;;;;;;1.52;1.30;;;13.40;99.90;;;;;;5041200;28;20108;-76
2022/08/09 02:24:25;;;;;;;1.30;1.00;;;13.40;99.90;;;;;;5040779;28;20056;-76
2022/08/09 02:26:55;;;;;;;1.30;1.08;;;13.40;99.90;;;;;;5045048;28;20450;-76
2022/08/09 02:29:24;;;;;;;1.88;1.00;;;13.50;99.90;;;;;;5046370;28;20044;-76
2022/08/09 02:31:51;;;;;;;2.17;1.00;;;13.50;99.90;;;;;;5043203;28;20025;-76
2022/08/09 02:34:21;;;;;;;0.90;0.60;;;13.50;99.90;;;;;;5040303;28;20033;-76
2022/08/09 02:36:51;;;;;;;0.82;0.60;;;13.40;99.90;;;;;;5036995;28;20037;-76
2022/08/09 02:39:37;;;;;;;0.85;0.50;;;13.40;99.90;;;;;;5036406;28;20041;-76
2022/08/09 02:42:09;;;;;;;1.02;0.70;;;13.40;99.90;;;;;;5046558;28;20078;-76
2022/08/09 02:44:49;;;;;;;1.60;0.95;;;13.40;99.90;;;;;;5045519;28;20042;-76
2022/08/09 02:47:17;;;;;;;1.15;0.90;;;13.30;99.90;;;;;;5044948;28;20120;-76
2022/08/09 02:49:55;;;;;;;2.10;1.20;;;13.30;99.90;;;;;;5045562;28;20036;-76
2022/08/09 02:52:25;;;;;;;1.23;1.08;;;13.30;99.90;;;;;;5048248;28;20876;-76
2022/08/09 02:54:52;;;;;;;2.60;1.13;;;13.30;99.90;;;;;;5041380;28;20111;-76
2022/08/09 02:57:18;;;;;;;1.00;0.85;;;13.30;99.90;;;;;;5048902;28;20033;-76
2022/08/09 02:59:45;;;;;;;1.00;0.80;;;13.20;99.90;;;;;;5042009;28;20032;-76
2022/08/09 03:02:13;;;;;;;2.28;1.10;;;13.10;99.90;;;;;;5038102;28;20116;-76
2022/08/09 03:04:40;;;;;;;1.65;0.98;;;13.10;99.90;;;;;;5049846;28;20052;-76
2022/08/09 03:07:06;;;;;;;1.40;0.90;;;13.10;99.90;;;;;;5046685;28;20034;-76
2022/08/09 03:09:32;;;;;;;1.45;1.02;;;13.10;99.90;;;;;;5045721;28;20041;-75
2022/08/09 03:11:58;;;;;;;1.33;1.00;;;13.00;99.90;;;;;;5032499;28;20041;-76
2022/08/09 03:14:25;;;;;;;2.05;1.20;;;13.00;99.90;;;;;;5042711;28;20033;-76
2022/08/09 03:16:52;;;;;;;1.70;0.98;;;13.10;99.90;;;;;;5036048;28;20060;-76
2022/08/09 03:19:21;;;;;;;1.50;1.20;;;13.10;99.90;;;;;;5049182;28;20124;-76
2022/08/09 03:21:49;;;;;;;3.35;0.90;;;13.00;99.90;;;;;;5040943;28;20036;-76
2022/08/09 03:24:17;;;;;;;2.03;0.90;;;13.00;99.90;;;;;;5044462;28;20040;-76
2022/08/09 03:26:45;;;;;;;1.20;0.98;;;12.90;99.90;;;;;;5041884;28;20033;-76
2022/08/09 03:29:12;;;;;;;2.75;1.15;;;13.00;99.90;;;;;;5044729;28;20040;-76
2022/08/09 03:31:39;;;;;;;1.30;1.10;;;12.90;99.90;;;;;;5044547;28;20487;-76
2022/08/09 03:34:06;;;;;;;1.85;1.30;;;12.90;99.90;;;;;;5041003;28;20040;-76
2022/08/09 03:36:32;;;;;;;3.67;1.00;;;12.80;99.90;;;;;;5043267;28;20049;-76
2022/08/09 03:38:58;;;;;;;1.88;1.23;;;12.70;99.90;;;;;;5045314;28;20036;-76
2022/08/09 03:41:24;;;;;;;1.67;1.20;;;12.70;99.90;;;;;;5040673;28;20041;-76
2022/08/09 03:43:50;;;;;;;2.63;1.13;;;12.60;99.90;;;;;;5038255;28;20033;-76
2022/08/09 03:46:15;;;;;;;1.55;1.02;;;12.50;99.90;;;;;;5044967;28;20034;-76
2022/08/09 03:48:43;;;;;;;1.02;0.70;;;12.60;99.90;;;;;;5037783;28;20029;-76
2022/08/09 03:51:10;;;;;;;1.23;0.50;;;12.60;99.90;;;;;;5046184;28;20510;-76
2022/08/09 03:53:37;;;;;;;1.25;0.70;;;12.60;99.90;;;;;;5039317;28;20112;-76
2022/08/09 03:56:04;;;;;;;1.50;0.80;;;12.60;99.90;;;;;;5041131;28;20437;-76
2022/08/09 03:58:31;;;;;;;1.60;1.13;;;12.60;99.90;;;;;;5044713;28;20152;-76
2022/08/09 04:00:58;;;;;;;3.00;0.93;;;12.60;99.90;;;;;;5045726;28;20037;-76
2022/08/09 04:03:25;;;;;;;1.60;1.10;;;12.60;99.90;;;;;;5044525;28;20038;-76
2022/08/09 04:05:51;;;;;;;3.50;1.40;;;12.50;99.90;;;;;;5033575;28;20100;-76
2022/08/09 04:08:16;;;;;;;8.70;1.50;;;12.50;99.90;;;;;;5038159;28;20036;-76
2022/08/09 04:10:42;;;;;;;6.65;1.92;;;12.50;99.90;;;;;;5043664;28;20025;-76
2022/08/09 04:13:11;;;;;;;2.08;1.48;;;12.40;99.90;;;;;;5047150;28;20037;-77
2022/08/09 04:15:38;;;;;;;2.05;1.30;;;12.30;99.90;;;;;;5044211;28;20718;-77
2022/08/09 04:18:05;;;;;;;1.95;1.33;;;12.30;99.90;;;;;;5036998;28;20099;-76
2022/08/09 04:20:31;;;;;;;2.30;1.10;;;12.30;99.90;;;;;;5048745;28;20049;-77
2022/08/09 04:22:57;;;;;;;2.42;1.30;;;12.30;99.90;;;;;;5037480;28;20034;-76
2022/08/09 04:25:23;;;;;;;1.80;1.00;;;12.40;99.90;;;;;;5048501;28;20462;-76
2022/08/09 04:27:48;;;;;;;1.55;1.00;;;12.50;99.90;;;;;;5041756;28;20076;-76
2022/08/09 04:30:18;;;;;;;1.80;0.95;;;12.50;99.90;;;;;;5045119;28;20463;-76
2022/08/09 04:32:44;;;;;;;2.03;1.05;;;12.50;99.90;;;;;;5045372;28;20036;-76
2022/08/09 04:35:11;;;;;;;2.95;1.20;;;12.40;99.90;;;;;;5043188;28;20479;-76
2022/08/09 04:37:38;;;;;;;2.30;1.00;;;12.40;99.90;;;;;;5048335;28;20095;-77
2022/08/09 04:40:06;;;;;;;3.63;1.23;;;12.50;99.90;;;;;;5041006;28;20037;-77
2022/08/09 04:42:31;;;;;;;3.30;1.08;;;12.50;99.90;;;;;;5041880;28;20048;-77
2022/08/09 04:44:59;;;;;;;1.20;0.80;;;12.60;99.90;;;;;;5041275;28;20033;-77
2022/08/09 04:47:25;;;;;;;1.02;0.88;;;12.70;99.90;;;;;;5042547;28;20056;-76
2022/08/09 04:49:51;;;;;;;1.75;0.90;;;12.70;99.90;;;;;;5049047;28;20411;-77
2022/08/09 04:52:17;;;;;;;1.15;0.80;;;12.80;99.90;;;;;;5041686;28;20033;-77
2022/08/09 04:54:43;;;;;;;1.45;0.80;;;12.70;99.90;;;;;;5042732;28;20413;-77
2022/08/09 04:57:09;;;;;;;1.63;0.68;;;12.80;99.90;;;;;;5043232;28;20064;-76
2022/08/09 04:59:35;;;;;;;1.00;0.70;;;12.90;99.90;;;;;;5045174;28;20037;-76
2022/08/09 05:02:01;;;;;;;1.00;0.80;;;12.90;99.90;;;;;;5047369;28;20612;-76
2022/08/09 05:04:26;;;;;;;1.38;0.60;;;12.90;99.90;;;;;;5041242;28;20041;-78
2022/08/09 05:06:52;;;;;;;0.95;0.75;;;12.90;99.90;;;;;;5049403;28;20068;-78
2022/08/09 05:09:17;;;;;;;1.00;0.77;;;12.90;99.90;;;;;;5046756;28;20036;-77
2022/08/09 05:11:43;;;;;;;1.48;0.80;;;13.00;99.90;;;;;;5038665;28;20735;-77
2022/08/09 05:14:09;;;;;;;1.50;0.77;;;12.90;99.90;;;;;;5036718;28;20037;-77
2022/08/09 05:16:34;;;;;;;1.10;0.82;;;13.00;99.90;;;;;;5045481;28;20115;-77
2022/08/09 05:19:00;;;;;;;1.10;0.88;;;13.10;99.90;;;;;;5044579;28;20114;-77
2022/08/09 05:21:27;;;;;;;1.25;0.90;;;13.20;99.90;;;;;;5039775;28;20092;-77
2022/08/09 05:23:53;;;;;;;1.77;1.02;;;13.30;99.90;;;;;;5047881;28;20538;-77
2022/08/09 05:26:19;;;;;;;2.22;1.10;;;13.40;99.90;;;;;;5042403;28;20144;-77
2022/08/09 05:28:45;;;;;;;2.25;1.30;;;13.50;99.90;;;;;;5038715;28;20497;-77
2022/08/09 05:31:10;;;;;;;2.53;1.10;;;13.60;99.90;;;;;;5041311;28;20030;-77
2022/08/09 05:33:36;;;;;;;2.13;1.50;;;13.90;99.90;;;;;;5040280;28;20037;-77
2022/08/09 05:36:02;;;;;;;2.60;1.60;;;14.00;99.90;;;;;;5039199;28;20033;-77
2022/08/09 05:38:29;;;;;;;1.77;1.33;;;14.10;99.90;;;;;;5039628;28;20094;-77
2022/08/09 05:40:55;;;;;;;3.40;1.65;;;14.20;99.90;;;;;;5033500;28;20043;-77
2022/08/09 05:43:20;;;;;;;2.35;1.70;;;14.30;99.90;;;;;;5036539;28;20041;-78
2022/08/09 05:45:46;;;;;;;3.53;2.08;;;14.50;99.90;;;;;;5031146;28;20064;-78
2022/08/09 05:48:12;;;;;;;3.35;2.08;;;14.60;99.90;;;;;;5031669;28;20045;-77
2022/08/09 05:50:40;;;;;;;2.63;1.90;;;14.70;99.90;;;;;;5030158;28;20501;-77
2022/08/09 05:53:06;;;;;;;3.30;1.73;;;14.80;99.90;;;;;;5029368;28;20111;-78
2022/08/09 05:55:32;;;;;;;3.47;2.80;;;14.90;99.90;;;;;;5033713;28;20414;-78
2022/08/09 05:57:58;;;;;;;3.47;2.40;;;15.00;99.90;;;;;;5034701;28;20045;-78
2022/08/09 06:00:28;;;;;;;2.97;2.10;;;15.10;99.90;;;;;;5034247;28;20052;-78
2022/08/09 06:02:58;;;;;;;3.42;2.10;;;15.30;99.90;;;;;;5043890;28;20041;-77
2022/08/09 06:05:25;;;;;;;3.50;2.05;;;15.40;99.90;;;;;;5038278;28;20556;-77
2022/08/09 06:07:50;;;;;;;2.83;2.17;;;15.60;99.90;;;;;;5036293;28;20059;-77
2022/08/09 06:10:16;;;;;;;2.78;2.38;;;15.60;99.90;;;;;;5042110;28;20033;-77
2022/08/09 06:12:42;;;;;;;4.68;2.50;;;15.90;99.90;;;;;;5033081;28;20111;-77
2022/08/09 06:15:08;;;;;;;3.85;2.70;;;16.00;99.90;;;;;;5033852;28;20466;-77
2022/08/09 06:17:33;;;;;;;5.70;2.88;;;16.20;99.90;;;;;;5036957;28;20497;-77
2022/08/09 06:19:59;;;;;;;3.65;2.72;;;16.30;99.90;;;;;;5036342;28;20515;-77
2022/08/09 06:22:24;;;;;;;3.22;2.55;;;16.50;99.90;;;;;;5035928;28;20502;-77
2022/08/09 06:24:50;;;;;;;4.03;2.85;;;16.60;99.90;;;;;;5040289;28;20052;-76
2022/08/09 06:27:15;;;;;;;5.85;2.60;;;16.70;99.90;;;;;;5036158;28;20095;-77
2022/08/09 06:29:42;;;;;;;5.93;3.03;;;16.90;99.90;;;;;;5044551;28;20450;-76
2022/08/09 06:32:07;;;;;;;6.35;3.28;;;17.00;99.90;;;;;;5037740;28;20047;-77
2022/08/09 06:34:33;;;;;;;5.38;3.67;;;17.20;99.90;;;;;;5036952;28;20037;-77
2022/08/09 06:36:58;;;;;;;5.03;3.13;;;17.40;99.90;;;;;;5038881;28;20032;-77
2022/08/09 06:39:24;;;;;;;6.80;3.10;;;17.50;99.90;;;;;;5034672;28;20037;-77
2022/08/09 06:41:50;;;;;;;8.60;3.60;;;17.60;99.90;;;;;;5038902;28;20506;-76
2022/08/09 06:44:15;;;;;;;5.35;3.65;;;17.90;99.90;;;;;;5048175;28;20047;-76
2022/08/09 06:46:41;;;;;;;5.43;3.60;;;18.10;99.90;;;;;;5035966;28;20435;-76
2022/08/09 06:49:06;;;;;;;6.03;3.53;;;18.20;99.90;;;;;;5029852;28;20062;-77
2022/08/09 06:51:34;;;;;;;5.00;3.42;;;18.30;99.90;;;;;;5016062;28;20500;-77
2022/08/09 06:54:00;;;;;;;3.97;3.28;;;18.50;99.90;;;;;;5008797;28;20049;-77
2022/08/09 06:56:25;;;;;;;6.40;3.67;;;18.70;99.90;;;;;;5009741;28;20037;-76
2022/08/09 06:58:51;;;;;;;4.28;2.90;;;18.90;99.90;;;;;;5012612;28;20041;-77
2022/08/09 07:01:16;;;;;;;4.22;2.65;;;19.10;99.90;;;;;;5019190;28;20562;-77
2022/08/09 07:03:42;;;;;;;6.60;2.80;;;19.30;99.90;;;;;;5024383;28;20052;-76
2022/08/09 07:06:07;;;;;;;5.05;2.50;;;19.40;99.90;;;;;;5010821;28;20030;-77
2022/08/09 07:08:33;;;;;;;5.85;2.72;;;19.60;99.90;;;;;;5013252;28;20038;-77
2022/08/09 07:11:01;;;;;;;5.50;2.70;;;19.80;99.90;;;;;;5009370;28;20042;-76
2022/08/09 07:13:27;;;;;;;3.05;1.67;;;20.00;99.90;;;;;;5010653;28;20492;-77
2022/08/09 07:15:52;;;;;;;2.28;1.42;;;20.10;99.90;;;;;;5016203;28;20037;-77
2022/08/09 07:18:18;;;;;;;4.13;1.70;;;20.30;99.90;;;;;;5017407;28;20069;-77
2022/08/09 07:20:43;;;;;;;4.28;1.67;;;20.40;99.90;;;;;;5018673;28;20041;-77
2022/08/09 07:23:10;;;;;;;3.00;1.40;;;20.50;99.90;;;;;;5008696;28;20038;-76
2022/08/09 07:25:36;;;;;;;3.20;1.20;;;20.60;99.90;;;;;;5016990;28;21145;-77
2022/08/09 07:28:01;;;;;;;2.65;1.15;;;20.70;99.90;;;;;;5033296;28;20132;-77
2022/08/09 07:30:27;;;;;;;2.10;1.23;;;20.80;99.90;;;;;;5022003;28;20047;-76
2022/08/09 07:32:53;;;;;;;2.45;1.10;;;20.90;99.90;;;;;;5025492;28;20030;-76
2022/08/09 07:35:18;;;;;;;2.90;1.50;;;21.00;99.90;;;;;;5038381;28;20053;-78
2022/08/09 07:37:44;;;;;;;1.85;1.00;;;21.00;99.90;;;;;;5021285;28;20037;-77
2022/08/09 07:40:16;;;;;;;2.13;1.00;;;21.10;99.90;;;;;;5021492;28;20040;-77
2022/08/09 07:42:54;;;;;;;3.15;1.30;;;21.10;99.90;;;;;;5029180;28;20041;-76
2022/08/09 07:45:24;;;;;;;1.73;1.02;;;21.20;99.90;;;;;;5030265;28;20042;-77
2022/08/09 07:47:54;;;;;;;3.22;1.27;;;21.30;99.90;;;;;;5027160;28;20458;-75
2022/08/09 07:50:21;;;;;;;2.33;1.10;;;21.30;99.90;;;;;;5031274;28;20569;-76
2022/08/09 07:52:48;;;;;;;3.60;1.13;;;21.30;99.90;;;;;;5032665;28;20038;-76
2022/08/09 07:55:13;;;;;;;3.30;1.27;;;21.20;99.90;;;;;;5032083;28;20037;-76
2022/08/09 07:57:39;;;;;;;3.22;1.17;;;21.20;99.90;;;;;;5031304;28;20491;-77
2022/08/09 08:00:06;;;;;;;2.33;1.17;;;21.20;99.90;;;;;;5030557;28;20101;-76
2022/08/09 08:02:31;;;;;;;2.55;1.10;;;21.00;99.90;;;;;;5032595;28;20103;-76
2022/08/09 08:04:57;;;;;;;2.22;1.20;;;20.90;99.90;;;;;;5032002;28;20492;-77
2022/08/09 08:07:23;;;;;;;2.88;1.10;;;21.10;99.90;;;;;;5032528;28;20041;-77
2022/08/09 08:09:49;;;;;;;3.35;1.02;;;21.40;99.90;;;;;;5031867;28;20081;-76
2022/08/09 08:12:14;;;;;;;2.90;1.10;;;21.70;99.90;;;;;;5030399;28;20053;-76
2022/08/09 08:14:40;;;;;;;1.80;1.05;;;22.10;99.90;;;;;;5031424;28;20037;-77
2022/08/09 08:17:05;;;;;;;2.00;0.85;;;22.50;99.90;;;;;;5031851;28;20045;-77
2022/08/09 08:19:31;;;;;;;2.20;0.90;;;22.70;99.90;;;;;;5026644;28;20033;-75
2022/08/09 08:21:57;;;;;;;1.83;1.02;;;22.70;99.90;;;;;;5029548;28;20037;-76
2022/08/09 08:24:22;;;;;;;2.75;1.10;;;22.40;99.90;;;;;;5028885;28;20037;-76
2022/08/09 08:26:48;;;;;;;2.25;1.00;;;22.00;99.90;;;;;;5031957;28;20147;-76
2022/08/09 08:29:16;;;;;;;2.22;1.05;;;21.70;99.90;;;;;;5028314;28;20587;-77
2022/08/09 08:31:41;;;;;;;2.10;1.00;;;21.50;99.90;;;;;;5027067;28;20056;-77
2022/08/09 08:34:07;;;;;;;3.47;1.20;;;21.30;99.90;;;;;;5025206;28;20034;-77
2022/08/09 08:36:33;;;;;;;1.92;0.95;;;21.10;99.90;;;;;;5028564;28;20052;-76
2022/08/09 08:38:58;;;;;;;1.27;0.80;;;21.00;99.90;;;;;;5031501;28;20529;-76
2022/08/09 08:41:24;;;;;;;2.28;0.90;;;21.20;99.90;;;;;;5024280;28;20033;-77
2022/08/09 08:43:50;;;;;;;3.72;1.17;;;21.70;99.90;;;;;;5031861;28;20041;-76
2022/08/09 08:46:18;;;;;;;2.05;1.00;;;22.20;99.90;;;;;;5031874;28;20025;-76
2022/08/09 08:48:44;;;;;;;3.10;1.02;;;22.60;99.90;;;;;;5032394;28;20045;-76
2022/08/09 08:51:11;;;;;;;2.20;0.90;;;22.90;99.90;;;;;;5014225;28;20064;-75
2022/08/09 08:53:37;;;;;;;2.10;0.77;;;23.20;99.90;;;;;;5032331;28;20107;-75
2022/08/09 08:56:05;;;;;;;1.33;0.73;;;23.20;99.90;;;;;;5030072;28;20041;-76
2022/08/09 08:58:34;;;;;;;2.92;0.90;;;23.30;99.90;;;;;;5027091;28;20115;-75
2022/08/09 09:01:02;;;;;;;1.73;0.90;;;23.20;99.90;;;;;;5020039;28;20044;-75
2022/08/09 09:03:33;;;;;;;1.80;0.70;;;23.10;99.90;;;;;;5043648;28;20044;-75
2022/08/09 09:06:00;;;;;;;1.73;0.70;;;23.00;99.90;;;;;;5031581;28;20045;-76
2022/08/09 09:08:30;;;;;;;1.25;0.70;;;23.00;99.90;;;;;;5029755;28;20045;-76
2022/08/09 09:10:56;;;;;;;1.02;0.70;;;23.10;99.90;;;;;;5030350;28;20129;-77
2022/08/09 09:13:22;;;;;;;1.70;0.65;;;23.10;99.90;;;;;;5023160;28;20080;-78
2022/08/09 09:15:48;;;;;;;1.50;0.70;;;23.20;99.90;;;;;;5029055;28;20045;-78
2022/08/09 09:18:14;;;;;;;1.60;0.73;;;23.30;99.90;;;;;;5032252;28;20041;-76
2022/08/09 09:20:42;;;;;;;3.45;0.85;;;23.30;99.90;;;;;;5032245;28;20056;-76
2022/08/09 09:23:08;;;;;;;2.03;0.88;;;23.40;99.90;;;;;;5032071;28;20041;-76
2022/08/09 09:25:42;;;;;;;3.17;0.90;;;23.50;99.90;;;;;;5031285;28;20044;-76
2022/08/09 09:28:10;;;;;;;2.20;0.88;;;23.60;99.90;;;;;;5032970;28;20112;-76
2022/08/09 09:30:53;;;;;;;1.92;0.90;;;23.50;99.90;;;;;;5032607;28;20060;-75
2022/08/09 09:33:19;;;;;;;1.40;0.87;;;23.70;99.90;;;;;;5044085;28;20056;-75
2022/08/09 09:35:57;;;;;;;7.63;1.00;;;23.60;99.90;;;;;;5030179;28;20379;-78
2022/08/09 09:38:37;;;;;;;3.75;1.00;;;23.60;99.90;;;;;;5037036;28;20045;-76
2022/08/09 09:41:03;;;;;;;2.15;0.70;;;23.50;99.90;;;;;;5029240;28;20041;-77
2022/08/09 09:43:30;;;;;;;1.73;0.70;;;23.50;99.90;;;;;;5030180;28;20048;-75
2022/08/09 09:45:56;;;;;;;1.88;0.70;;;23.60;99.90;;;;;;5028672;28;20041;-75
2022/08/09 09:48:22;;;;;;;1.33;0.60;;;23.80;99.90;;;;;;5030131;28;20041;-74
2022/08/09 09:50:49;;;;;;;0.73;0.50;;;23.90;99.90;;;;;;5030235;28;20033;-75
2022/08/09 09:53:19;;;;;;;1.73;0.68;;;24.00;99.90;;;;;;5030865;28;20049;-75
2022/08/09 09:56:01;;;;;;;1.20;0.65;;;23.90;99.90;;;;;;5030213;28;20041;-75
2022/08/09 09:58:45;;;;;;;1.58;0.68;;;23.80;99.90;;;;;;5030766;28;20365;-75
2022/08/09 10:01:21;;;;;;;1.58;0.73;;;23.60;99.90;;;;;;5030670;28;20048;-75
2022/08/09 10:03:49;;;;;;;3.15;0.88;;;23.40;99.90;;;;;;5027904;28;20029;-75
2022/08/09 10:06:16;;;;;;;1.92;0.80;;;23.20;99.90;;;;;;5030767;28;20116;-76
2022/08/09 10:08:44;;;;;;;1.95;0.90;;;23.10;99.90;;;;;;5022537;28;20067;-76
2022/08/09 10:11:20;;;;;;;0.90;0.70;;;23.00;99.90;;;;;;5030662;28;20445;-77
2022/08/09 10:13:46;;;;;;;2.40;0.80;;;22.90;99.90;;;;;;5030059;28;20052;-75
2022/08/09 10:16:13;;;;;;;1.27;0.70;;;22.90;99.90;;;;;;5030605;28;20079;-76
2022/08/09 10:18:49;;;;;;;2.25;0.70;;;22.90;99.90;;;;;;5030723;28;20116;-74
2022/08/09 10:21:15;;;;;;;1.20;0.80;;;22.90;99.90;;;;;;5030735;28;20041;-75
2022/08/09 10:23:42;;;;;;;2.80;0.88;;;23.10;99.90;;;;;;5030201;28;20422;-74
2022/08/09 10:26:09;;;;;;;2.33;0.73;;;23.40;99.90;;;;;;5030053;28;20045;-74
2022/08/09 10:28:35;;;;;;;1.77;0.80;;;23.50;99.90;;;;;;5029161;28;20567;-73
2022/08/09 10:31:02;;;;;;;1.38;0.70;;;23.60;99.90;;;;;;5017518;28;20561;-74
2022/08/09 10:33:28;;;;;;;1.55;0.70;;;23.70;99.90;;;;;;5028800;28;20033;-75
2022/08/09 10:35:55;;;;;;;1.55;0.70;;;23.90;99.90;;;;;;5020487;28;20522;-74
2022/08/09 10:38:21;;;;;;;2.47;0.85;;;23.50;99.90;;;;;;5028196;28;20065;-74
2022/08/09 10:40:49;;;;;;;1.60;0.60;;;23.40;99.90;;;;;;5029891;28;20056;-75
2022/08/09 10:43:15;;;;;;;3.28;0.98;;;23.50;99.90;;;;;;5029985;28;20045;-75
2022/08/09 10:45:43;;;;;;;2.45;0.77;;;23.70;99.90;;;;;;5028987;28;20038;-74
2022/08/09 10:48:32;;;;;;;2.60;0.60;;;23.80;99.90;;;;;;5029826;28;20041;-75
2022/08/09 10:51:34;;;;;;;1.25;0.60;;;23.70;99.90;;;;;;5029254;28;20112;-75
2022/08/09 10:54:04;;;;;;;1.92;0.52;;;23.80;99.90;;;;;;5015549;28;20083;-74
2022/08/09 10:56:35;;;;;;;1.73;0.60;;;24.00;99.90;;;;;;5028379;28;20056;-74
2022/08/09 10:59:20;;;;;;;1.45;0.80;;;24.10;99.90;;;;;;5029870;28;20037;-74
2022/08/09 11:01:47;;;;;;;1.55;0.88;;;24.10;99.90;;;;;;5033019;28;20033;-75
2022/08/09 11:04:24;;;;;;;1.80;0.52;;;24.00;99.90;;;;;;5032982;28;20046;-75
2022/08/09 11:06:59;;;;;;;3.67;0.63;;;24.10;99.90;;;;;;5041428;28;20077;-75
2022/08/09 11:09:49;;;;;;;0.98;0.43;;;24.00;99.90;;;;;;5035675;28;20049;-74
2022/08/09 11:12:23;;;;;;;2.30;0.40;;;23.80;99.90;;;;;;5027574;28;20052;-74
2022/08/09 11:14:54;;;;;;;0.85;0.60;;;23.70;99.90;;;;;;5032435;28;20038;-73
2022/08/09 11:17:20;;;;;;;1.90;0.50;;;24.00;99.90;;;;;;5032781;28;20095;-74
2022/08/09 11:20:09;;;;;;;1.05;0.55;;;24.30;99.90;;;;;;5033610;28;20049;-74
2022/08/09 11:22:44;;;;;;;1.13;0.60;;;24.70;99.90;;;;;;5033425;28;20051;-75
2022/08/09 11:25:23;;;;;;;1.48;0.60;;;25.10;99.90;;;;;;5033468;28;20037;-75
2022/08/09 11:27:54;;;;;;;1.38;0.52;;;25.50;99.90;;;;;;5033520;28;20064;-75
2022/08/09 11:30:22;;;;;;;1.38;0.52;;;25.80;99.90;;;;;;5033507;28;20100;-73
2022/08/09 11:33:10;;;;;;;1.30;0.60;;;25.70;98.80;;;;;;5034767;28;20348;-74
2022/08/09 11:35:38;;;;;;;0.98;0.60;;;25.90;99.80;;;;;;5036235;28;20499;-74
2022/08/09 11:38:14;;;;;;;0.93;0.55;;;26.10;99.70;;;;;;5030715;28;20055;-75
2022/08/09 11:40:40;;;;;;;2.88;0.55;;;26.20;99.80;;;;;;5025391;28;20041;-75
2022/08/09 11:43:06;;;;;;;1.17;0.50;;;26.30;99.50;;;;;;5029855;28;20045;-74
2022/08/09 11:45:37;;;;;;;1.23;0.40;;;26.50;99.40;;;;;;5030182;28;20072;-73
2022/08/09 11:48:21;;;;;;;1.00;0.55;;;26.80;99.30;;;;;;5032945;28;20045;-74
2022/08/09 11:50:56;;;;;;;1.55;0.50;;;26.80;98.90;;;;;;5031477;28;20416;-74
2022/08/09 11:53:26;;;;;;;0.85;0.40;;;26.70;98.60;;;;;;5041036;28;20037;-74
2022/08/09 11:55:57;;;;;;;1.00;0.40;;;26.20;98.30;;;;;;5040306;28;20048;-75
2022/08/09 11:58:22;;;;;;;0.50;0.40;;;25.90;98.30;;;;;;5040042;28;20099;-73
2022/08/09 12:01:02;;;;;;;1.13;0.40;;;26.20;98.30;;;;;;5042428;28;20044;-74
2022/08/09 12:03:28;;;;;;;1.58;0.70;;;26.50;98.30;;;;;;5043986;28;20033;-75
2022/08/09 12:05:57;;;;;;;0.93;0.50;;;26.40;97.60;;;;;;5045400;28;20090;-74
2022/08/09 12:08:24;;;;;;;0.80;0.50;;;26.50;97.80;;;;;;5041498;28;20388;-74
2022/08/09 12:10:55;;;;;;;0.75;0.52;;;26.80;97.80;;;;;;5040819;28;20037;-75
2022/08/09 12:13:35;;;;;;;0.93;0.60;;;27.00;97.60;;;;;;5039645;28;20114;-74
2022/08/09 12:16:13;;;;;;;0.77;0.60;;;27.30;97.20;;;;;;5041033;28;20060;-74
2022/08/09 12:18:41;;;;;;;1.42;0.50;;;27.20;97.30;;;;;;5044306;28;20044;-74
2022/08/09 12:21:08;;;;;;;0.68;0.50;;;27.00;97.00;;;;;;5044540;28;20037;-74
2022/08/09 12:23:41;;;;;;;1.85;0.52;;;26.80;96.90;;;;;;5045098;28;20053;-73
2022/08/09 12:26:06;;;;;;;1.58;0.52;;;27.00;97.00;;;;;;5045381;28;20033;-74
2022/08/09 12:28:33;;;;;;;0.88;0.60;;;27.50;97.20;;;;;;5043738;28;20091;-74
2022/08/09 12:30:59;;;;;;;2.30;0.70;;;28.00;97.00;;;;;;5045400;28;20499;-74
2022/08/09 12:33:25;;;;;;;0.70;0.50;;;28.20;96.80;;;;;;5037581;28;20025;-74
2022/08/09 12:36:05;;;;;;;1.92;0.50;;;28.20;96.30;;;;;;5039969;28;20040;-74
2022/08/09 12:38:33;;;;;;;0.90;0.60;;;27.60;95.60;;;;;;5032542;28;20503;-74
2022/08/09 12:40:58;;;;;;;1.48;0.47;;;27.50;95.90;;;;;;5033130;28;20037;-75
2022/08/09 12:43:26;;;;;;;1.13;0.60;;;27.40;95.50;;;;;;5033135;28;20052;-74
2022/08/09 12:45:54;;;;;;;0.93;0.60;;;27.20;94.60;;;;;;5033253;28;20045;-74
2022/08/09 12:48:20;;;;;;;2.70;0.73;;;26.90;95.70;;;;;;5033123;28;20069;-74
2022/08/09 12:50:46;;;;;;;0.45;0.40;;;26.70;96.00;;;;;;5032986;28;20120;-74
2022/08/09 12:53:26;;;;;;;1.92;0.50;;;26.80;96.20;;;;;;5032444;28;20072;-74